Time;durP1;ratioP1;P1;durP2;ratioP2;P2;SDS_P1;SDS_P2;PMS_P1;PMS_P2;Temp;Humidity;BMP_temperature;BMP_pressure;BME280_temperature;BME280_humidity;BME280_pressure;Samples;Min_cycle;Max_cycle;Signal;HPM_P1;HPM_P2
2021/04/21 00:01:00;;;;;;;7.43;3.70;;;;;;;15.33;52.83;99576.06;4956218;28;20031;-69
2021/04/21 00:03:25;;;;;;;9.13;4.10;;;;;;;15.40;52.72;99585.41;4957527;28;20156;-69
2021/04/21 00:05:53;;;;;;;8.70;3.70;;;;;;;15.37;52.85;99588.00;4956568;28;20042;-70
2021/04/21 00:08:19;;;;;;;8.60;3.72;;;;;;;15.35;52.78;99587.53;4957104;28;20050;-70
2021/04/21 00:10:46;;;;;;;7.05;3.53;;;;;;;15.30;52.89;99582.19;4956674;28;20028;-69
2021/04/21 00:13:11;;;;;;;4.95;3.25;;;;;;;15.20;52.73;99566.91;4956949;28;20049;-69
2021/04/21 00:15:37;;;;;;;7.95;3.85;;;;;;;15.24;52.77;99570.63;4954932;28;20141;-70
2021/04/21 00:18:05;;;;;;;7.25;3.50;;;;;;;15.29;52.85;99583.34;4955048;28;20058;-70
2021/04/21 00:20:32;;;;;;;5.93;3.20;;;;;;;15.31;52.66;99587.38;4950148;28;20516;-70
2021/04/21 00:23:03;;;;;;;9.45;3.40;;;;;;;15.26;52.67;99580.13;4950558;28;20036;-69
2021/04/21 00:25:33;;;;;;;6.40;3.40;;;;;;;15.15;52.79;99567.88;4956140;28;20034;-71
2021/04/21 00:27:59;;;;;;;6.38;3.45;;;;;;;15.26;53.00;99579.31;4957946;28;20103;-69
2021/04/21 00:30:27;;;;;;;6.65;3.33;;;;;;;15.23;52.81;99575.28;4955939;28;20027;-69
2021/04/21 00:32:55;;;;;;;4.15;3.33;;;;;;;15.19;52.73;99577.09;4953102;28;20399;-69
2021/04/21 00:35:24;;;;;;;6.40;3.55;;;;;;;15.17;52.86;99579.34;4957074;28;20027;-69
2021/04/21 00:37:54;;;;;;;7.47;3.22;;;;;;;15.14;52.98;99569.03;4955319;28;20725;-69
2021/04/21 00:40:45;;;;;;;6.85;3.58;;;;;;;15.07;52.79;99563.25;4954701;28;20027;-68
2021/04/21 00:43:25;;;;;;;6.40;3.35;;;;;;;15.07;53.01;99575.03;4951607;28;20047;-69
2021/04/21 00:46:00;;;;;;;7.32;3.42;;;;;;;15.08;53.00;99570.34;4955017;28;20049;-70
2021/04/21 00:48:42;;;;;;;8.80;3.60;;;;;;;15.07;52.91;99569.56;4958099;28;20087;-70
2021/04/21 00:51:29;;;;;;;7.00;3.58;;;;;;;15.05;52.90;99574.56;4957473;28;20090;-69
2021/04/21 00:53:59;;;;;;;;;;;;;;;15.01;52.84;99570.06;4962676;28;20027;-69
2021/04/21 00:56:42;;;;;;;6.82;3.30;;;;;;;14.99;52.78;99575.06;4957950;29;20295;-69
2021/04/21 00:59:22;;;;;;;8.77;3.88;;;;;;;15.01;52.94;99568.09;4953565;28;20066;-69
2021/04/21 01:01:47;;;;;;;6.70;3.42;;;;;;;14.95;52.96;99570.25;4957967;28;20031;-70
2021/04/21 01:04:14;;;;;;;6.97;3.40;;;;;;;14.95;52.99;99567.50;4955656;28;20039;-69
2021/04/21 01:06:44;;;;;;;6.05;3.88;;;;;;;14.74;53.16;99537.22;4952241;28;20511;-68
2021/04/21 01:09:11;;;;;;;14.93;3.85;;;;;;;14.81;53.13;99549.63;4955781;28;20095;-71
2021/04/21 01:11:43;;;;;;;7.85;3.75;;;;;;;14.94;53.25;99565.88;4957730;28;20027;-69
2021/04/21 01:14:30;;;;;;;6.05;3.35;;;;;;;14.97;53.33;99569.91;4955489;28;20042;-69
2021/04/21 01:17:03;;;;;;;6.10;3.10;;;;;;;14.98;53.44;99565.22;4955492;28;20042;-69
2021/04/21 01:19:50;;;;;;;8.18;3.22;;;;;;;14.99;53.42;99570.38;4960306;28;20041;-69
2021/04/21 01:22:43;;;;;;;6.72;3.70;;;;;;;14.97;53.37;99558.94;4953371;28;20035;-70
2021/04/21 01:25:42;;;;;;;7.68;4.07;;;;;;;14.95;53.54;99563.94;4964275;28;20189;-69
2021/04/21 01:28:15;;;;;;;6.85;3.33;;;;;;;14.89;53.57;99565.25;4956387;28;20055;-68
2021/04/21 01:30:44;;;;;;;8.75;3.90;;;;;;;14.86;53.75;99557.66;4956622;28;20147;-71
2021/04/21 01:33:14;;;;;;;5.07;3.47;;;;;;;14.80;53.90;99557.03;4958590;28;20035;-68
2021/04/21 01:35:45;;;;;;;8.77;4.10;;;;;;;14.80;54.08;99562.53;4957493;28;20031;-68
2021/04/21 01:38:13;;;;;;;7.00;3.78;;;;;;;14.74;54.43;99566.56;4956300;28;20050;-69
2021/04/21 01:40:46;;;;;;;11.57;3.97;;;;;;;14.72;54.43;99577.06;4956625;28;20027;-71
2021/04/21 01:43:18;;;;;;;7.43;3.83;;;;;;;14.68;54.74;99570.63;4957436;28;20038;-68
2021/04/21 01:45:45;;;;;;;9.30;3.60;;;;;;;14.58;55.00;99564.31;4955697;28;20035;-69
2021/04/21 01:48:23;;;;;;;7.30;3.72;;;;;;;14.66;55.10;99579.19;4956835;29;20030;-68
2021/04/21 01:50:49;;;;;;;7.03;3.42;;;;;;;14.63;55.06;99566.88;4958775;28;20027;-69
2021/04/21 01:53:26;;;;;;;5.95;3.28;;;;;;;14.52;55.06;99562.91;4959832;28;20102;-70
2021/04/21 01:56:22;;;;;;;10.68;4.63;;;;;;;14.64;55.31;99571.25;4959839;28;20043;-71
2021/04/21 01:58:48;;;;;;;9.10;3.83;;;;;;;14.61;55.25;99573.84;4958170;29;20054;-71
2021/04/21 02:01:16;;;;;;;6.75;3.88;;;;;;;14.63;55.47;99580.59;4960012;28;20062;-71
2021/04/21 02:03:48;;;;;;;10.27;3.47;;;;;;;14.61;55.38;99577.41;4956543;28;20030;-70
2021/04/21 02:06:39;;;;;;;7.07;3.88;;;;;;;14.62;55.57;99580.94;4960209;28;20078;-71
2021/04/21 02:09:04;;;;;;;9.70;4.30;;;;;;;14.60;55.55;99578.53;4958012;29;20096;-72
2021/04/21 02:11:34;;;;;;;8.18;3.78;;;;;;;14.47;55.38;99557.56;4959487;28;20031;-70
2021/04/21 02:14:18;;;;;;;7.88;3.67;;;;;;;14.60;55.64;99589.50;4961019;28;20031;-70
2021/04/21 02:17:01;;;;;;;7.95;3.75;;;;;;;14.58;55.72;99593.72;4956950;28;20082;-71
2021/04/21 02:19:48;;;;;;;10.77;4.20;;;;;;;14.56;55.72;99588.53;4959070;28;20110;-71
2021/04/21 02:22:30;;;;;;;7.65;3.70;;;;;;;14.56;55.83;99598.72;4961118;28;20538;-71
2021/04/21 02:25:04;;;;;;;8.93;3.58;;;;;;;14.55;55.73;99592.41;4959618;28;20058;-70
2021/04/21 02:27:42;;;;;;;8.93;4.30;;;;;;;14.56;55.89;99588.53;4959419;28;20033;-70
2021/04/21 02:30:39;;;;;;;8.57;4.00;;;;;;;14.58;55.71;99585.47;4956808;28;20113;-71
2021/04/21 02:33:11;;;;;;;6.38;4.22;;;;;;;14.55;55.91;99594.34;4962893;28;20039;-70
2021/04/21 02:35:45;;;;;;;7.32;3.88;;;;;;;14.55;56.00;99592.41;4957837;28;20031;-71
2021/04/21 02:38:34;;;;;;;8.40;3.80;;;;;;;14.54;55.91;99582.59;4958645;28;20031;-70
2021/04/21 02:41:16;;;;;;;8.35;3.88;;;;;;;14.42;55.99;99575.00;4959116;28;20041;-70
2021/04/21 02:43:55;;;;;;;8.13;3.60;;;;;;;14.45;56.14;99590.00;4957961;28;20026;-70
2021/04/21 02:46:27;;;;;;;11.45;4.18;;;;;;;14.42;56.27;99579.69;4963025;28;20111;-71
2021/04/21 02:49:02;;;;;;;10.25;4.00;;;;;;;14.39;56.50;99583.06;4959858;28;20034;-71
2021/04/21 02:51:43;;;;;;;8.45;3.80;;;;;;;14.36;56.67;99583.72;4960095;28;20027;-70
2021/04/21 02:54:45;;;;;;;10.88;4.60;;;;;;;14.35;56.72;99588.38;4971050;28;20398;-70
2021/04/21 02:57:33;;;;;;;10.35;4.70;;;;;;;14.35;56.62;99595.81;4959184;28;20031;-70
2021/04/21 03:00:03;;;;;;;7.15;4.03;;;;;;;14.31;56.84;99582.75;4959247;29;20102;-70
2021/04/21 03:02:33;;;;;;;11.30;4.78;;;;;;;14.30;57.00;99589.34;4958545;28;20622;-70
2021/04/21 03:05:21;;;;;;;8.75;4.97;;;;;;;14.31;57.03;99582.75;4959333;28;20507;-70
2021/04/21 03:08:03;;;;;;;10.85;4.47;;;;;;;14.15;57.31;99563.25;4959147;28;20031;-70
2021/04/21 03:10:47;;;;;;;7.55;4.35;;;;;;;14.31;57.22;99581.94;4960353;28;20050;-70
2021/04/21 03:13:23;;;;;;;8.07;4.55;;;;;;;14.30;57.38;99580.34;4958763;28;20027;-71
2021/04/21 03:16:01;;;;;;;11.15;4.68;;;;;;;14.31;57.26;99585.50;4949325;28;20033;-71
2021/04/21 03:18:30;;;;;;;13.50;5.22;;;;;;;14.29;57.47;99582.28;4959299;28;20500;-72
2021/04/21 03:21:12;;;;;;;12.55;5.00;;;;;;;14.29;57.66;99582.28;4978512;28;20022;-71
2021/04/21 03:23:41;;;;;;;11.13;4.88;;;;;;;14.25;57.78;99567.59;4948497;28;20031;-70
2021/04/21 03:26:07;;;;;;;10.50;4.72;;;;;;;14.11;58.01;99556.78;4963976;28;20555;-70
2021/04/21 03:28:35;;;;;;;11.60;5.05;;;;;;;14.21;58.16;99572.13;4959122;28;20057;-72
2021/04/21 03:31:06;;;;;;;9.52;4.90;;;;;;;14.16;58.33;99570.34;4958770;28;20046;-72
2021/04/21 03:33:52;;;;;;;11.25;4.80;;;;;;;14.21;58.35;99571.31;4959263;29;20481;-72
2021/04/21 03:36:18;;;;;;;12.02;5.47;;;;;;;14.17;58.32;99569.19;4963262;28;20027;-72
2021/04/21 03:38:48;;;;;;;11.35;5.10;;;;;;;14.20;58.28;99573.25;4959172;28;20087;-71
2021/04/21 03:41:14;;;;;;;11.05;5.20;;;;;;;14.20;58.37;99573.25;4961235;28;20015;-70
2021/04/21 03:43:42;;;;;;;8.15;4.93;;;;;;;14.19;58.45;99568.06;4958557;28;20026;-70
2021/04/21 03:46:09;;;;;;;11.13;5.00;;;;;;;14.14;58.76;99567.13;4962211;28;20102;-70
2021/04/21 03:48:36;;;;;;;8.18;5.30;;;;;;;14.10;58.76;99566.13;4958949;28;20023;-71
2021/04/21 03:51:02;;;;;;;10.52;4.57;;;;;;;14.07;58.90;99577.78;4957600;28;20054;-72
2021/04/21 03:53:34;;;;;;;9.32;4.63;;;;;;;14.07;58.94;99579.69;4968716;28;20019;-71
2021/04/21 03:56:01;;;;;;;9.63;5.22;;;;;;;14.06;59.06;99569.84;4958745;28;20034;-70
2021/04/21 03:58:29;;;;;;;11.77;5.30;;;;;;;14.04;59.14;99581.13;4958496;28;20027;-70
2021/04/21 04:01:14;;;;;;;9.27;5.05;;;;;;;14.02;59.33;99572.44;4961522;28;20022;-70
2021/04/21 04:03:45;;;;;;;11.45;5.13;;;;;;;13.97;59.41;99576.13;4962071;28;20023;-72
2021/04/21 04:06:20;;;;;;;10.18;5.45;;;;;;;13.96;59.52;99574.53;4957134;29;20038;-71
2021/04/21 04:09:04;;;;;;;9.50;4.95;;;;;;;13.90;59.74;99575.81;4958040;28;20496;-71
2021/04/21 04:11:37;;;;;;;13.00;5.35;;;;;;;13.85;59.85;99585.00;4965099;28;20027;-70
2021/04/21 04:14:30;;;;;;;10.32;5.47;;;;;;;13.82;59.96;99574.69;4966772;28;20090;-71
2021/04/21 04:16:58;;;;;;;7.90;4.97;;;;;;;13.78;59.95;99576.44;4956735;28;20035;-70
2021/04/21 04:19:25;;;;;;;9.35;5.32;;;;;;;13.76;60.38;99581.41;4958483;28;20463;-70
2021/04/21 04:22:00;;;;;;;6.68;5.32;;;;;;;13.71;60.46;99570.63;4962108;28;20038;-71
2021/04/21 04:24:27;;;;;;;9.33;5.63;;;;;;;13.68;60.32;99579.47;4964488;28;20487;-71
2021/04/21 04:26:56;;;;;;;11.23;5.15;;;;;;;13.68;60.40;99577.56;4958428;28;20254;-70
2021/04/21 04:29:22;;;;;;;10.45;5.50;;;;;;;13.67;60.53;99578.69;4957601;29;20530;-71
2021/04/21 04:31:49;;;;;;;10.40;5.50;;;;;;;13.50;60.37;99563.03;4957948;28;20090;-71
2021/04/21 04:34:17;;;;;;;15.02;5.88;;;;;;;13.49;60.85;99560.59;4966031;28;20507;-70
2021/04/21 04:36:43;;;;;;;11.90;5.43;;;;;;;13.60;60.70;99589.31;4962258;28;20127;-71
2021/04/21 04:39:09;;;;;;;7.35;5.40;;;;;;;13.59;60.89;99589.63;4957699;28;20062;-70
2021/04/21 04:41:37;;;;;;;10.95;6.00;;;;;;;13.54;60.94;99594.13;4957657;28;20033;-70
2021/04/21 04:44:03;;;;;;;10.23;6.25;;;;;;;13.36;61.03;99571.34;4957092;28;20046;-72
2021/04/21 04:46:31;;;;;;;9.60;5.63;;;;;;;13.28;61.18;99571.28;4961889;28;20027;-70
2021/04/21 04:49:07;;;;;;;10.30;6.03;;;;;;;13.43;61.40;99595.53;4957971;29;20027;-70
2021/04/21 04:51:36;;;;;;;11.27;5.75;;;;;;;13.38;61.37;99592.91;4963805;28;20058;-71
2021/04/21 04:54:05;;;;;;;12.50;5.53;;;;;;;13.40;61.38;99600.81;4968880;28;20031;-72
2021/04/21 04:56:35;;;;;;;10.40;5.80;;;;;;;13.39;61.56;99597.28;4957631;28;20554;-72
2021/04/21 04:59:05;;;;;;;9.95;6.03;;;;;;;13.29;61.45;99583.84;4957352;28;20027;-70
2021/04/21 05:01:58;;;;;;;8.73;5.65;;;;;;;13.40;61.50;99600.81;4958063;28;20026;-71
2021/04/21 05:04:35;;;;;;;12.13;5.72;;;;;;;13.34;61.49;99600.94;4950111;28;20066;-70
2021/04/21 05:07:06;;;;;;;10.88;6.10;;;;;;;13.34;61.55;99603.69;4957627;28;20023;-71
2021/04/21 05:09:38;;;;;;;12.98;6.40;;;;;;;13.34;61.35;99616.59;4957500;29;20468;-72
2021/04/21 05:12:08;;;;;;;13.55;6.15;;;;;;;13.31;61.46;99615.25;4957330;28;20110;-71
2021/04/21 05:14:37;;;;;;;9.60;6.65;;;;;;;13.29;61.61;99628.47;4957183;28;20031;-70
2021/04/21 05:17:30;;;;;;;11.05;5.53;;;;;;;13.29;61.82;99625.75;4956180;28;20415;-71
2021/04/21 05:20:29;;;;;;;10.43;5.97;;;;;;;13.29;61.89;99625.75;4955115;28;20106;-71
2021/04/21 05:23:16;;;;;;;10.55;6.40;;;;;;;13.30;61.72;99626.53;4957348;28;20062;-70
2021/04/21 05:26:19;;;;;;;9.98;6.53;;;;;;;13.32;61.81;99630.56;4966303;28;20447;-70
2021/04/21 05:28:59;;;;;;;9.70;6.25;;;;;;;13.34;61.60;99635.75;4958048;28;20053;-70
2021/04/21 05:31:52;;;;;;;10.48;6.85;;;;;;;13.39;61.82;99641.09;4965594;28;20034;-70
2021/04/21 05:34:36;;;;;;;12.48;6.07;;;;;;;13.38;61.81;99640.31;4960978;28;20054;-71
2021/04/21 05:37:32;;;;;;;12.27;6.53;;;;;;;13.41;61.75;99640.78;4964581;28;20035;-71
2021/04/21 05:40:26;;;;;;;9.18;6.13;;;;;;;13.43;61.75;99638.53;4961485;28;20031;-70
2021/04/21 05:43:38;;;;;;;15.23;6.45;;;;;;;13.47;61.70;99645.81;4963033;28;20520;-71
2021/04/21 05:46:35;;;;;;;13.38;5.93;;;;;;;13.48;61.62;99650.16;4969736;28;20506;-71
2021/04/21 05:49:22;;;;;;;11.82;6.03;;;;;;;13.51;61.60;99651.47;4960933;28;20083;-71
2021/04/21 05:52:18;;;;;;;11.00;5.95;;;;;;;13.54;61.69;99648.09;4952433;28;20496;-72
2021/04/21 05:55:18;;;;;;;16.77;7.10;;;;;;;13.54;61.52;99648.91;4961259;28;20031;-70
2021/04/21 05:58:20;;;;;;;11.98;6.43;;;;;;;13.56;61.62;99659.53;4948180;28;20031;-70
2021/04/21 06:01:15;;;;;;;10.07;5.40;;;;;;;13.59;61.76;99655.38;4960505;28;20034;-72
2021/04/21 06:03:45;;;;;;;8.40;5.38;;;;;;;13.61;61.63;99653.91;4963089;28;20047;-71
2021/04/21 06:06:11;;;;;;;9.38;6.18;;;;;;;13.64;61.60;99657.94;4963625;28;20043;-71
2021/04/21 06:08:37;;;;;;;8.80;5.68;;;;;;;13.65;61.61;99657.63;4960561;28;20034;-70
2021/04/21 06:11:02;;;;;;;8.20;6.07;;;;;;;13.51;61.69;99641.31;4960838;28;20027;-71
2021/04/21 06:13:32;;;;;;;8.15;5.38;;;;;;;13.65;61.59;99671.31;4960083;28;20027;-70
2021/04/21 06:15:58;;;;;;;12.20;5.15;;;;;;;13.66;61.78;99669.41;4962808;28;20484;-69
2021/04/21 06:18:25;;;;;;;11.48;5.70;;;;;;;13.64;61.97;99677.13;4960022;28;20035;-70
2021/04/21 06:20:52;;;;;;;11.82;5.50;;;;;;;13.65;61.84;99668.59;4960671;28;20611;-70
2021/04/21 06:23:20;;;;;;;12.05;5.40;;;;;;;13.72;61.98;99672.81;4960145;28;20027;-71
2021/04/21 06:25:50;;;;;;;10.55;5.57;;;;;;;13.79;61.84;99673.94;4966502;28;20035;-70
2021/04/21 06:28:21;;;;;;;9.48;5.38;;;;;;;13.82;61.82;99676.06;4958776;28;20047;-71
2021/04/21 06:31:01;;;;;;;10.23;5.82;;;;;;;13.88;61.71;99676.75;4959706;28;20085;-71
2021/04/21 06:33:32;;;;;;;9.45;5.55;;;;;;;13.93;61.54;99665.63;4967449;28;20650;-70
2021/04/21 06:35:58;;;;;;;12.77;5.20;;;;;;;14.04;61.37;99674.34;4960087;28;20086;-70
2021/04/21 06:38:31;;;;;;;10.70;5.40;;;;;;;14.13;61.46;99677.13;4960188;28;20503;-71
2021/04/21 06:40:57;;;;;;;7.72;4.97;;;;;;;14.09;61.29;99657.72;4959853;29;20106;-71
2021/04/21 06:43:30;;;;;;;11.35;5.00;;;;;;;14.29;60.97;99677.44;4967974;28;20058;-71
2021/04/21 06:45:55;;;;;;;8.65;5.03;;;;;;;14.33;61.08;99681.97;4962051;28;20515;-70
2021/04/21 06:48:29;;;;;;;7.85;5.20;;;;;;;14.42;61.07;99684.69;4959647;29;20464;-71
2021/04/21 06:51:07;;;;;;;10.43;5.18;;;;;;;14.50;60.77;99682.31;4958655;28;20042;-70
2021/04/21 06:53:32;;;;;;;11.60;5.28;;;;;;;14.59;60.73;99685.81;4967898;28;20047;-72
2021/04/21 06:55:58;;;;;;;10.27;5.13;;;;;;;14.66;60.87;99694.44;4959392;28;20031;-70
2021/04/21 06:58:27;;;;;;;10.32;4.75;;;;;;;14.69;60.55;99685.53;4959079;28;20042;-70
2021/04/21 07:00:53;;;;;;;9.85;5.20;;;;;;;14.82;60.41;99697.47;4959897;28;20515;-70
2021/04/21 07:03:19;;;;;;;7.85;4.30;;;;;;;14.83;60.20;99693.59;4959340;28;20488;-71
2021/04/21 07:05:46;;;;;;;8.18;4.70;;;;;;;14.85;60.06;99693.28;4959160;28;20038;-70
2021/04/21 07:08:14;;;;;;;10.05;4.70;;;;;;;14.77;59.93;99690.22;4959443;28;20046;-70
2021/04/21 07:10:55;;;;;;;7.22;5.07;;;;;;;14.78;59.92;99696.53;4959371;28;20027;-71
2021/04/21 07:13:25;;;;;;;6.03;4.47;;;;;;;14.76;59.96;99696.84;4957390;28;20051;-71
2021/04/21 07:15:53;;;;;;;5.80;4.68;;;;;;;14.76;60.21;99699.56;4958297;28;20510;-71
2021/04/21 07:18:21;;;;;;;9.05;5.70;;;;;;;14.74;60.21;99690.06;4958706;28;20051;-71
2021/04/21 07:20:48;;;;;;;9.75;5.03;;;;;;;14.77;60.12;99687.47;4963795;28;20023;-72
2021/04/21 07:23:20;;;;;;;10.68;4.90;;;;;;;14.81;60.03;99689.59;4959008;28;20082;-71
2021/04/21 07:25:47;;;;;;;9.90;5.03;;;;;;;14.82;60.14;99688.44;4966507;28;20031;-70
2021/04/21 07:28:15;;;;;;;7.13;4.25;;;;;;;14.82;60.08;99681.00;4958117;28;20083;-71
2021/04/21 07:30:41;;;;;;;8.80;5.28;;;;;;;14.86;60.02;99692.97;4964777;28;20027;-71
2021/04/21 07:33:06;;;;;;;8.48;4.63;;;;;;;14.92;59.98;99693.59;4959227;28;20166;-70
2021/04/21 07:35:33;;;;;;;11.48;5.47;;;;;;;14.98;60.00;99688.75;4962390;28;20034;-72
2021/04/21 07:37:59;;;;;;;9.65;5.03;;;;;;;15.05;59.58;99698.09;4958929;28;20055;-71
2021/04/21 07:40:26;;;;;;;7.82;4.88;;;;;;;15.12;59.41;99694.88;4959156;28;20015;-71
2021/04/21 07:43:13;;;;;;;7.13;4.50;;;;;;;15.22;59.13;99693.72;4958106;28;20055;-71
2021/04/21 07:45:58;;;;;;;6.95;4.50;;;;;;;15.24;58.89;99691.44;4962532;28;20022;-71
2021/04/21 07:48:37;;;;;;;14.50;7.93;;;;;;;15.30;58.79;99689.31;4958852;28;20074;-71
2021/04/21 07:51:15;;;;;;;9.80;5.00;;;;;;;15.37;58.65;99689.63;4956586;28;20046;-72
2021/04/21 07:54:03;;;;;;;5.95;4.95;;;;;;;15.45;58.57;99696.22;4970042;28;20093;-71
2021/04/21 07:56:35;;;;;;;8.80;5.20;;;;;;;15.48;58.36;99696.38;4953068;28;20111;-71
2021/04/21 07:59:37;;;;;;;8.70;4.50;;;;;;;15.57;57.98;99694.41;4963204;28;20035;-71
2021/04/21 08:02:15;;;;;;;7.85;4.47;;;;;;;15.64;57.66;99693.88;4957970;28;20065;-72
2021/04/21 08:04:49;;;;;;;11.45;4.85;;;;;;;15.70;57.77;99689.03;4958882;29;20045;-71
2021/04/21 08:07:39;;;;;;;8.57;4.30;;;;;;;15.81;57.36;99687.50;4947087;28;20400;-72
2021/04/21 08:10:23;;;;;;;6.25;4.15;;;;;;;15.87;57.27;99680.69;4948271;28;20023;-71
2021/04/21 08:12:49;;;;;;;8.50;4.40;;;;;;;15.91;57.07;99688.28;4957132;28;20031;-71
2021/04/21 08:15:16;;;;;;;7.32;4.72;;;;;;;15.96;56.60;99679.84;4957128;28;20094;-71
2021/04/21 08:17:54;;;;;;;8.27;4.15;;;;;;;16.04;56.57;99673.47;4958125;28;20059;-72
2021/04/21 08:20:34;;;;;;;8.15;4.50;;;;;;;16.12;56.31;99685.56;4958185;28;20095;-71
2021/04/21 08:23:04;;;;;;;10.02;4.63;;;;;;;16.04;56.10;99663.31;4956731;28;20044;-71
2021/04/21 08:25:31;;;;;;;9.45;4.60;;;;;;;16.19;56.00;99685.84;4959389;28;20027;-71
2021/04/21 08:27:57;;;;;;;8.73;5.00;;;;;;;16.24;55.99;99684.84;4961673;28;20452;-71
2021/04/21 08:30:24;;;;;;;8.65;4.72;;;;;;;16.26;55.69;99686.13;4957206;28;20039;-71
2021/04/21 08:32:49;;;;;;;10.05;4.65;;;;;;;16.25;55.72;99690.00;4951603;28;20035;-71
2021/04/21 08:35:15;;;;;;;5.68;4.03;;;;;;;16.26;55.69;99686.13;4956679;28;20034;-70
2021/04/21 08:37:42;;;;;;;5.93;4.60;;;;;;;16.27;55.35;99689.69;4964919;28;20043;-71
2021/04/21 08:40:09;;;;;;;7.30;4.72;;;;;;;16.24;55.49;99698.59;4956974;28;20038;-71
2021/04/21 08:42:39;;;;;;;7.95;4.45;;;;;;;16.27;55.38;99695.19;4958017;28;20034;-72
2021/04/21 08:45:06;;;;;;;5.78;4.30;;;;;;;16.24;54.95;99687.59;4956607;28;20606;-71
2021/04/21 08:47:32;;;;;;;5.68;4.18;;;;;;;16.19;55.06;99691.34;4958613;28;20035;-72
2021/04/21 08:49:58;;;;;;;6.82;4.57;;;;;;;16.19;54.94;99691.34;4971804;28;20043;-71
2021/04/21 08:52:29;;;;;;;8.52;4.30;;;;;;;16.15;55.17;99693.97;4958668;28;20031;-71
2021/04/21 08:54:56;;;;;;;7.15;4.35;;;;;;;16.13;55.31;99688.00;4967127;28;20031;-71
2021/04/21 08:57:22;;;;;;;6.35;4.25;;;;;;;16.13;55.05;99689.94;4958507;28;20046;-71
2021/04/21 08:59:48;;;;;;;5.78;4.00;;;;;;;16.19;55.19;99694.09;4960167;28;20031;-72
2021/04/21 09:02:16;;;;;;;7.68;4.18;;;;;;;16.13;54.91;99665.19;4963535;28;20090;-72
2021/04/21 09:04:42;;;;;;;7.55;4.47;;;;;;;16.37;54.74;99703.03;4963334;28;20038;-71
2021/04/21 09:07:08;;;;;;;5.38;4.07;;;;;;;16.44;54.46;99688.75;4962604;28;20042;-70
2021/04/21 09:09:34;;;;;;;7.10;4.10;;;;;;;16.51;53.76;99694.53;4964795;28;20034;-71
2021/04/21 09:12:01;;;;;;;7.93;4.25;;;;;;;16.44;53.98;99675.00;4973183;28;20468;-71
2021/04/21 09:14:28;;;;;;;5.82;3.78;;;;;;;16.52;54.18;99685.94;4970142;28;20037;-71
2021/04/21 09:16:53;;;;;;;6.03;3.95;;;;;;;16.67;53.75;99692.75;4965210;28;20050;-72
2021/04/21 09:19:19;;;;;;;8.77;4.30;;;;;;;16.70;53.68;99698.75;4964217;28;20023;-70
2021/04/21 09:21:44;;;;;;;9.48;6.00;;;;;;;16.71;53.40;99698.41;4964219;28;20034;-70
2021/04/21 09:24:11;;;;;;;8.80;3.72;;;;;;;16.74;53.32;99703.25;4968356;28;20049;-70
2021/04/21 09:26:37;;;;;;;6.95;3.90;;;;;;;16.77;53.39;99702.59;4965025;28;20035;-69
2021/04/21 09:29:03;;;;;;;4.13;3.70;;;;;;;16.82;53.22;99702.38;4963307;28;20074;-69
2021/04/21 09:31:31;;;;;;;9.43;4.00;;;;;;;16.84;53.30;99697.34;4962099;28;20041;-69
2021/04/21 09:34:26;;;;;;;7.90;3.72;;;;;;;16.90;52.86;99697.13;4961878;28;20086;-69
2021/04/21 09:36:51;;;;;;;8.43;4.03;;;;;;;16.88;52.80;99702.97;4963567;28;20047;-69
2021/04/21 09:39:18;;;;;;;6.18;3.75;;;;;;;16.91;52.81;99705.03;4960249;28;20061;-70
2021/04/21 09:41:47;;;;;;;5.80;3.83;;;;;;;16.93;52.54;99694.50;4970563;28;20023;-68
2021/04/21 09:44:20;;;;;;;7.20;3.67;;;;;;;16.99;52.16;99695.91;4963888;28;20114;-69
2021/04/21 09:46:48;;;;;;;5.68;3.72;;;;;;;17.02;52.17;99702.72;4964863;28;20019;-70
2021/04/21 09:49:31;;;;;;;5.95;3.42;;;;;;;17.08;51.54;99706.03;4961944;28;20510;-69
2021/04/21 09:51:59;;;;;;;5.45;3.50;;;;;;;17.12;51.59;99702.25;4961940;28;20499;-69
2021/04/21 09:54:31;;;;;;;6.35;3.53;;;;;;;17.19;51.36;99704.47;4973423;28;20031;-68
2021/04/21 09:57:31;;;;;;;7.07;3.33;;;;;;;17.30;51.41;99694.63;4959842;28;20423;-67
2021/04/21 09:59:57;;;;;;;7.88;3.67;;;;;;;17.30;51.05;99697.38;4962258;28;20046;-67
2021/04/21 10:02:32;;;;;;;6.55;3.15;;;;;;;17.37;50.94;99696.81;4963555;28;20074;-67
2021/04/21 10:04:57;;;;;;;7.53;3.58;;;;;;;17.38;51.05;99695.66;4963354;28;20464;-67
2021/04/21 10:07:23;;;;;;;225.82;162.35;;;;;;;17.45;50.98;99686.84;4963376;28;20424;-67
2021/04/21 10:09:59;;;;;;;1327.13;859.92;;;;;;;17.53;50.90;99694.22;4963409;28;20035;-66
2021/04/21 10:12:36;;;;;;;33.95;25.52;;;;;;;17.57;49.99;99689.59;4957350;28;20118;-67
2021/04/21 10:15:09;;;;;;;42.22;34.03;;;;;;;17.58;49.82;99687.66;4960256;28;20031;-68
2021/04/21 10:17:37;;;;;;;63.25;56.00;;;;;;;17.57;49.57;99691.56;4960556;28;20032;-68
2021/04/21 10:20:05;;;;;;;37.85;30.70;;;;;;;17.57;49.61;99678.56;4960473;28;20023;-67
2021/04/21 10:22:31;;;;;;;1442.60;838.58;;;;;;;17.61;49.50;99687.78;4960137;28;20019;-67
2021/04/21 10:24:58;;;;;;;342.50;281.63;;;;;;;17.68;49.80;99684.47;4968184;28;20031;-67
2021/04/21 10:27:24;;;;;;;23.50;16.95;;;;;;;17.77;50.05;99687.09;4959001;28;20027;-58
2021/04/21 10:29:50;;;;;;;23.30;20.88;;;;;;;17.83;49.48;99682.16;4960119;28;20055;-61
2021/04/21 10:32:15;;;;;;;36.38;31.10;;;;;;;17.85;49.31;99675.16;4958980;28;20024;-68
2021/04/21 10:34:45;;;;;;;20.50;14.57;;;;;;;17.76;49.28;99660.66;4959325;28;20035;-67
2021/04/21 10:37:12;;;;;;;6.90;3.20;;;;;;;17.89;48.56;99676.03;4963599;28;20031;-68
2021/04/21 10:39:39;;;;;;;13.68;10.30;;;;;;;17.89;48.61;99676.03;4959672;28;20451;-68
2021/04/21 10:42:15;;;;;;;10.80;5.47;;;;;;;17.84;48.71;99673.53;4960076;28;20133;-68
2021/04/21 10:44:43;;;;;;;10.25;6.35;;;;;;;17.91;48.91;99678.47;4959142;28;20106;-68
2021/04/21 10:47:16;;;;;;;21.08;10.30;;;;;;;18.01;48.94;99677.22;4961020;28;20027;-67
2021/04/21 10:49:52;;;;;;;24.35;10.65;;;;;;;18.14;48.42;99665.00;4958645;28;20027;-67
2021/04/21 10:52:29;;;;;;;10.65;3.58;;;;;;;18.22;48.51;99666.03;4959589;28;20370;-68
2021/04/21 10:55:08;;;;;;;8.25;3.42;;;;;;;18.27;48.49;99667.75;4959429;28;20496;-67
2021/04/21 10:57:36;;;;;;;16.92;6.47;;;;;;;18.35;48.44;99662.09;4958798;28;20047;-67
2021/04/21 11:00:26;;;;;;;4.07;2.63;;;;;;;18.51;47.89;99661.38;4958366;28;20066;-68
2021/04/21 11:02:59;;;;;;;11.43;6.00;;;;;;;18.57;47.39;99654.44;4963399;28;20039;-68
2021/04/21 11:05:38;;;;;;;15.00;6.60;;;;;;;18.59;46.91;99660.44;4959560;28;20110;-67
2021/04/21 11:08:18;;;;;;;10.18;5.43;;;;;;;18.58;46.98;99656.06;4959491;28;20078;-68
2021/04/21 11:10:53;;;;;;;48.78;34.95;;;;;;;18.65;47.12;99660.97;4958807;28;20813;-68
2021/04/21 11:13:34;;;;;;;106.03;86.53;;;;;;;18.67;46.98;99665.00;4959373;28;20087;-68
2021/04/21 11:16:00;;;;;;;5.40;3.10;;;;;;;18.69;46.41;99654.38;4959000;28;20031;-66
2021/04/21 11:18:30;;;;;;;19.85;16.85;;;;;;;18.73;46.34;99646.19;4959083;28;20103;-67
2021/04/21 11:21:09;;;;;;;28.00;23.52;;;;;;;18.80;45.68;99648.38;4959219;28;20646;-68
2021/04/21 11:24:05;;;;;;;11.70;9.30;;;;;;;18.86;45.67;99638.66;4957757;28;20123;-68
2021/04/21 11:26:35;;;;;;;4.97;3.13;;;;;;;18.85;45.75;99635.09;4958876;28;20126;-68
2021/04/21 11:29:07;;;;;;;2.85;1.42;;;;;;;18.90;45.47;99636.00;4958892;28;20059;-70
2021/04/21 11:31:42;;;;;;;2.90;1.92;;;;;;;18.96;44.90;99634.63;4958998;28;20400;-68
2021/04/21 11:34:19;;;;;;;5.40;1.90;;;;;;;18.96;44.47;99631.88;4958448;28;20071;-68
2021/04/21 11:37:09;;;;;;;3.47;1.70;;;;;;;18.96;44.21;99635.41;4967581;28;20030;-67
2021/04/21 11:39:50;;;;;;;6.43;2.10;;;;;;;18.96;44.46;99626.34;4948023;29;20084;-68
2021/04/21 11:42:35;;;;;;;2.45;1.40;;;;;;;19.00;43.88;99627.22;4959138;28;20095;-68
2021/04/21 11:45:07;;;;;;;2.78;1.40;;;;;;;19.00;44.06;99622.53;4958457;29;20035;-67
2021/04/21 11:47:38;;;;;;;4.60;1.60;;;;;;;19.03;44.31;99618.25;4956850;28;20110;-68
2021/04/21 11:50:05;;;;;;;7.03;1.50;;;;;;;19.07;44.55;99618.34;4952511;28;20033;-68
2021/04/21 11:52:41;;;;;;;2.20;1.42;;;;;;;19.11;44.54;99613.69;4954715;28;20501;-68
2021/04/21 11:55:07;;;;;;;3.38;1.65;;;;;;;18.98;45.12;99588.09;4959069;28;20026;-67
2021/04/21 11:57:35;;;;;;;3.47;1.55;;;;;;;19.21;44.31;99615.13;4958127;28;20511;-68
2021/04/21 12:00:02;;;;;;;3.53;1.98;;;;;;;19.25;43.77;99608.53;4958710;28;20112;-67